createdAt,value
2023-10-10T00:00:50.475Z,95719.81
2023-10-10T00:03:20.752Z,95710.28
2023-10-10T00:05:48.338Z,95719.00
2023-10-10T00:08:17.645Z,95718.19
2023-10-10T00:10:51.801Z,95712.94
2023-10-10T00:13:21.650Z,95719.00
2023-10-10T00:15:52.632Z,95716.53
2023-10-10T00:18:20.739Z,95709.47
2023-10-10T00:21:05.947Z,95706.84
2023-10-10T00:23:39.493Z,95710.28
2023-10-10T00:26:07.417Z,95704.22
2023-10-10T00:28:37.412Z,95706.00
2023-10-10T00:31:09.376Z,95714.72
2023-10-10T00:33:39.518Z,95710.28
2023-10-10T00:36:11.177Z,95703.38
2023-10-10T00:38:39.188Z,95698.13
2023-10-10T00:41:09.838Z,95698.97
2023-10-10T00:43:38.693Z,95704.22
2023-10-10T00:46:07.759Z,95699.78
2023-10-10T00:48:39.401Z,95691.91
2023-10-10T00:51:11.798Z,95693.69
2023-10-10T00:53:40.883Z,95694.53
2023-10-10T00:56:09.121Z,95691.06
2023-10-10T00:58:39.105Z,95691.91
2023-10-10T01:01:09.750Z,95694.69
2023-10-10T01:03:37.842Z,95693.69
2023-10-10T01:06:09.006Z,95688.44
2023-10-10T01:08:58.543Z,95686.66
2023-10-10T01:11:26.196Z,95686.00
2023-10-10T01:13:55.152Z,95684.19
2023-10-10T01:16:25.626Z,95687.63
2023-10-10T01:18:58.340Z,95691.91
2023-10-10T01:21:34.586Z,95679.72
2023-10-10T01:24:13.331Z,95679.72
2023-10-10T01:26:45.344Z,95681.56
2023-10-10T01:29:22.526Z,95682.34
2023-10-10T01:31:52.690Z,95678.75
2023-10-10T01:34:32.723Z,95675.47
2023-10-10T01:37:08.968Z,95677.09
2023-10-10T01:39:48.534Z,95678.09
2023-10-10T01:42:18.674Z,95673.81
2023-10-10T01:44:46.214Z,95680.91
2023-10-10T01:47:27.941Z,95684.31
2023-10-10T01:49:59.245Z,95679.06
2023-10-10T01:52:28.673Z,95676.44
2023-10-10T01:54:56.226Z,95672.00
2023-10-10T01:57:25.085Z,95668.56
2023-10-10T01:59:54.984Z,95672.84
2023-10-10T02:02:25.660Z,95677.28
2023-10-10T02:04:57.535Z,95676.44
2023-10-10T02:07:32.163Z,95671.19
2023-10-10T02:10:13.472Z,95673.81
2023-10-10T02:12:45.334Z,95675.47
2023-10-10T02:15:17.372Z,95666.94
2023-10-10T02:17:52.280Z,95673.81
2023-10-10T02:20:35.082Z,95665.94
2023-10-10T02:23:10.659Z,95664.13
2023-10-10T02:25:38.894Z,95665.13
2023-10-10T02:28:11.283Z,95660.69
2023-10-10T02:30:39.170Z,95657.91
2023-10-10T02:33:15.789Z,95659.72
2023-10-10T02:35:55.898Z,95653.63
2023-10-10T02:38:26.063Z,95651.00
2023-10-10T02:40:57.479Z,95648.38
2023-10-10T02:43:41.577Z,95658.88
2023-10-10T02:46:09.146Z,95652.78
2023-10-10T02:48:43.141Z,95663.31
2023-10-10T02:51:16.857Z,95651.16
2023-10-10T02:53:47.745Z,95659.06
2023-10-10T02:56:22.555Z,95662.50
2023-10-10T02:58:55.357Z,95667.75
2023-10-10T03:01:47.625Z,95664.31
2023-10-10T03:04:18.350Z,95666.75
2023-10-10T03:06:46.390Z,95664.31
2023-10-10T03:09:29.738Z,95663.31
2023-10-10T03:12:05.921Z,95664.31
2023-10-10T03:14:35.144Z,95661.69
2023-10-10T03:17:06.673Z,95668.56
2023-10-10T03:19:40.766Z,95665.13
2023-10-10T03:22:29.640Z,95659.06
2023-10-10T03:25:21.722Z,95663.47
2023-10-10T03:27:56.480Z,95659.06
2023-10-10T03:30:32.095Z,95665.28
2023-10-10T03:33:10.214Z,95662.66
2023-10-10T03:36:01.683Z,95669.56
2023-10-10T03:38:46.217Z,95666.94
2023-10-10T03:41:27.679Z,95669.56
2023-10-10T03:44:14.951Z,95668.72
2023-10-10T03:47:00.328Z,95672.19
2023-10-10T03:49:45.812Z,95668.72
2023-10-10T03:52:30.766Z,95666.94
2023-10-10T03:55:16.128Z,95666.94
2023-10-10T03:58:00.908Z,95667.75
2023-10-10T04:00:47.034Z,95670.38
2023-10-10T04:03:33.936Z,95664.13
2023-10-10T04:06:21.095Z,95660.84
2023-10-10T04:09:05.929Z,95662.34
2023-10-10T04:11:59.153Z,95662.34
2023-10-10T04:14:44.084Z,95657.06
2023-10-10T04:17:30.627Z,95664.97
2023-10-10T04:20:15.867Z,95662.16
2023-10-10T04:23:00.817Z,95665.63
2023-10-10T04:25:45.673Z,95676.97
2023-10-10T04:28:30.538Z,95670.72
2023-10-10T04:31:15.290Z,95665.44
2023-10-10T04:34:01.534Z,95666.28
2023-10-10T04:36:46.347Z,95670.72
2023-10-10T04:39:31.204Z,95673.19
2023-10-10T04:42:16.116Z,95675.00
2023-10-10T04:45:00.927Z,95674.16
2023-10-10T04:47:45.841Z,95682.06
2023-10-10T04:50:32.338Z,95672.38
2023-10-10T04:53:17.289Z,95677.63
2023-10-10T04:56:02.304Z,95679.41
2023-10-10T04:58:47.040Z,95682.72
2023-10-10T05:01:32.001Z,95682.88
2023-10-10T05:04:17.217Z,95675.00
2023-10-10T05:07:03.442Z,95678.44
2023-10-10T05:09:48.249Z,95679.41
2023-10-10T05:12:33.180Z,95677.63
2023-10-10T05:15:18.081Z,95675.00
2023-10-10T05:18:03.158Z,95674.16
2023-10-10T05:20:48.287Z,95669.75
2023-10-10T05:23:32.535Z,95671.53
2023-10-10T05:26:00.896Z,95672.38
2023-10-10T05:28:31.603Z,95675.81
2023-10-10T05:30:59.266Z,95678.44
2023-10-10T05:33:27.661Z,95674.16
2023-10-10T05:35:58.747Z,95677.63
2023-10-10T05:38:27.702Z,95675.97
2023-10-10T05:40:59.471Z,95674.16
2023-10-10T05:43:34.863Z,95684.50
2023-10-10T05:46:02.618Z,95679.41
2023-10-10T05:48:32.285Z,95680.25
2023-10-10T05:50:59.992Z,95685.50
2023-10-10T05:53:34.149Z,95682.72
2023-10-10T05:56:13.686Z,95682.88
2023-10-10T05:58:44.058Z,95688.97
2023-10-10T06:01:13.578Z,95690.59
2023-10-10T06:03:42.362Z,95688.97
2023-10-10T06:06:13.178Z,95696.84
2023-10-10T06:08:44.168Z,95691.59
2023-10-10T06:11:13.920Z,95694.34
2023-10-10T06:13:41.614Z,95690.75
2023-10-10T06:16:10.151Z,95696.84
2023-10-10T06:18:37.726Z,95693.41
2023-10-10T06:21:10.329Z,95696.03
2023-10-10T06:23:38.248Z,95703.06
2023-10-10T06:26:08.009Z,95703.06
2023-10-10T06:28:41.991Z,95700.28
2023-10-10T06:31:11.730Z,95706.53
2023-10-10T06:33:42.039Z,95699.63
2023-10-10T06:36:28.319Z,95706.53
2023-10-10T06:39:19.510Z,95703.91
2023-10-10T06:41:51.381Z,95714.41
2023-10-10T06:44:33.144Z,95710.00
2023-10-10T06:47:01.741Z,95710.13
2023-10-10T06:49:44.524Z,95711.78
2023-10-10T06:52:19.235Z,95719.66
2023-10-10T06:54:54.742Z,95713.59
2023-10-10T06:57:37.145Z,95708.34
2023-10-10T07:00:31.037Z,95713.59
2023-10-10T07:02:59.230Z,95713.59
2023-10-10T07:05:28.897Z,95708.34
2023-10-10T07:07:59.802Z,95711.94
2023-10-10T07:10:28.362Z,95710.13
2023-10-10T07:12:59.410Z,95713.59
2023-10-10T07:15:27.220Z,95710.97
2023-10-10T07:18:06.152Z,95711.78
2023-10-10T07:20:51.459Z,95707.38
2023-10-10T07:23:21.883Z,95720.34
2023-10-10T07:26:00.759Z,95716.88
2023-10-10T07:28:30.344Z,95722.13
2023-10-10T07:30:57.896Z,95726.41
2023-10-10T07:33:30.777Z,95720.34
2023-10-10T07:35:58.391Z,95724.59
2023-10-10T07:38:29.107Z,95715.91
2023-10-10T07:40:56.763Z,95728.03
2023-10-10T07:43:28.569Z,95724.59
2023-10-10T07:45:57.477Z,95725.41
2023-10-10T07:48:40.432Z,95724.59
2023-10-10T07:51:10.573Z,95724.59
2023-10-10T07:53:45.098Z,95728.03
2023-10-10T07:56:12.784Z,95738.56
2023-10-10T07:58:53.778Z,95737.72
2023-10-10T08:01:24.537Z,95739.38
2023-10-10T08:03:52.135Z,95740.34
2023-10-10T08:06:23.085Z,95737.59
2023-10-10T08:09:10.229Z,95731.50
2023-10-10T08:11:38.059Z,95731.69
2023-10-10T08:14:08.332Z,95733.47
2023-10-10T08:16:37.862Z,95729.03
2023-10-10T08:19:09.461Z,95733.47
2023-10-10T08:21:39.530Z,95733.47
2023-10-10T08:24:09.172Z,95741.34
2023-10-10T08:26:43.125Z,95736.94
2023-10-10T08:29:11.519Z,95741.34
2023-10-10T08:31:41.446Z,95744.81
2023-10-10T08:34:10.436Z,95743.00
2023-10-10T08:36:39.388Z,95743.00
2023-10-10T08:39:26.631Z,95747.44
2023-10-10T08:41:55.019Z,95742.19
2023-10-10T08:44:24.736Z,95742.19
2023-10-10T08:46:56.722Z,95745.63
2023-10-10T08:49:25.463Z,95744.81
2023-10-10T08:51:54.197Z,95752.69
2023-10-10T08:54:22.242Z,95750.88
2023-10-10T08:57:01.027Z,95753.38
2023-10-10T08:59:30.700Z,95748.25
2023-10-10T09:02:09.937Z,95746.44
2023-10-10T09:04:37.537Z,95752.53
2023-10-10T09:07:09.845Z,95744.66
2023-10-10T09:09:39.085Z,95747.78
2023-10-10T09:12:13.886Z,95750.09
2023-10-10T09:14:42.514Z,95744.16
2023-10-10T09:17:12.747Z,95734.50
2023-10-10T09:19:44.062Z,95743.34
2023-10-10T09:22:26.949Z,95747.78
2023-10-10T09:24:56.795Z,95750.41
2023-10-10T09:27:28.591Z,95748.59
2023-10-10T09:29:57.552Z,95749.44
2023-10-10T09:32:37.571Z,95745.00
2023-10-10T09:35:08.048Z,95751.94
2023-10-10T09:37:39.725Z,95750.63
2023-10-10T09:40:16.820Z,95750.75
2023-10-10T09:42:54.922Z,95743.34
2023-10-10T09:45:37.172Z,95759.47
2023-10-10T09:48:07.742Z,95750.91
2023-10-10T09:50:46.803Z,95757.31
2023-10-10T09:53:22.579Z,95750.41
2023-10-10T09:55:54.760Z,95752.38
2023-10-10T09:58:28.100Z,95749.72
2023-10-10T10:01:04.211Z,95750.72
2023-10-10T10:03:51.143Z,95754.31
2023-10-10T10:06:38.499Z,95748.25
2023-10-10T10:09:39.699Z,95755.31
2023-10-10T10:12:20.741Z,95755.31
2023-10-10T10:14:55.041Z,95753.50
2023-10-10T10:17:26.404Z,95758.63
2023-10-10T10:20:19.686Z,95749.91
2023-10-10T10:22:48.510Z,95748.91
2023-10-10T10:25:26.244Z,95752.38
2023-10-10T10:28:01.516Z,95755.00
2023-10-10T10:30:47.874Z,95741.03
2023-10-10T10:33:16.520Z,95744.16
2023-10-10T10:36:15.554Z,95747.78
2023-10-10T10:39:04.945Z,95748.59
2023-10-10T10:41:44.260Z,95751.06
2023-10-10T10:44:14.613Z,95750.09
2023-10-10T10:46:49.114Z,95741.38
2023-10-10T10:49:23.246Z,95747.47
2023-10-10T10:52:12.127Z,95748.28
2023-10-10T10:54:42.453Z,95740.41
2023-10-10T10:57:43.264Z,95734.97
2023-10-10T11:00:27.002Z,95734.00
2023-10-10T11:03:01.014Z,95745.84
2023-10-10T11:05:29.288Z,95737.97
2023-10-10T11:08:11.915Z,95736.16
2023-10-10T11:10:46.436Z,95737.97
2023-10-10T11:13:15.252Z,95731.69
2023-10-10T11:15:42.809Z,95725.78
2023-10-10T11:18:11.208Z,95724.81
2023-10-10T11:20:52.992Z,95718.72
2023-10-10T11:23:24.587Z,95717.91
2023-10-10T11:26:01.636Z,95716.28
2023-10-10T11:28:38.624Z,95705.75
2023-10-10T11:31:08.748Z,95709.34
2023-10-10T11:33:50.079Z,95719.03
2023-10-10T11:36:30.486Z,95705.09
2023-10-10T11:39:17.436Z,95702.47
2023-10-10T11:41:47.874Z,95703.25
2023-10-10T11:44:19.739Z,95701.63
2023-10-10T11:46:48.136Z,95697.22
2023-10-10T11:49:17.208Z,95694.72
2023-10-10T11:51:44.703Z,95687.66
2023-10-10T11:54:13.537Z,95686.84
2023-10-10T11:56:41.096Z,95685.03
2023-10-10T11:59:12.165Z,95678.81
2023-10-10T12:02:08.587Z,95676.97
2023-10-10T12:04:38.761Z,95685.56
2023-10-10T12:07:07.410Z,95681.44
2023-10-10T12:09:40.007Z,95684.41
2023-10-10T12:12:07.526Z,95681.13
2023-10-10T12:14:35.068Z,95677.00
2023-10-10T12:17:06.999Z,95678.97
2023-10-10T12:19:38.361Z,95670.25
2023-10-10T12:22:11.822Z,95665.00
2023-10-10T12:24:41.650Z,95667.63
2023-10-10T12:27:09.277Z,95665.00
2023-10-10T12:29:40.777Z,95662.38
2023-10-10T12:32:16.916Z,95659.75
2023-10-10T12:34:45.001Z,95664.19
2023-10-10T12:37:16.463Z,95659.09
2023-10-10T12:39:45.547Z,95662.56
2023-10-10T12:42:13.575Z,95659.94
2023-10-10T12:44:41.126Z,95648.72
2023-10-10T12:47:08.900Z,95650.56
2023-10-10T12:49:45.256Z,95648.06
2023-10-10T12:52:13.861Z,95652.34
2023-10-10T12:54:43.310Z,95645.59
2023-10-10T12:57:15.707Z,95647.25
2023-10-10T12:59:47.443Z,95648.22
2023-10-10T13:02:17.650Z,95636.88
2023-10-10T13:04:48.084Z,95639.53
2023-10-10T13:07:17.388Z,95626.56
2023-10-10T13:09:47.866Z,95631.97
2023-10-10T13:12:34.035Z,95632.78
2023-10-10T13:15:15.685Z,95629.34
2023-10-10T13:17:54.367Z,95630.97
2023-10-10T13:20:23.631Z,95628.53
2023-10-10T13:22:52.479Z,95621.47
2023-10-10T13:25:21.226Z,95628.34
2023-10-10T13:27:53.563Z,95626.72
2023-10-10T13:30:21.523Z,95619.81
2023-10-10T13:32:49.080Z,95625.91
2023-10-10T13:35:16.660Z,95623.25
2023-10-10T13:37:45.028Z,95619.81
2023-10-10T13:40:22.126Z,95620.63
2023-10-10T13:42:51.241Z,95623.25
2023-10-10T13:45:23.485Z,95614.56
2023-10-10T13:47:51.347Z,95613.59
2023-10-10T13:50:32.973Z,95619.81
2023-10-10T13:53:01.396Z,95612.75
2023-10-10T13:55:33.521Z,95612.75
2023-10-10T13:58:02.301Z,95617.00
2023-10-10T14:00:34.859Z,95609.28
2023-10-10T14:03:05.150Z,95616.34
2023-10-10T14:05:35.169Z,95605.84
2023-10-10T14:08:04.009Z,95606.66
2023-10-10T14:10:38.224Z,95609.47
2023-10-10T14:13:20.904Z,95607.66
2023-10-10T14:15:58.517Z,95613.72
2023-10-10T14:18:27.455Z,95613.72
2023-10-10T14:20:55.458Z,95604.22
2023-10-10T14:23:24.009Z,95601.59
2023-10-10T14:25:51.756Z,95592.88
2023-10-10T14:28:21.542Z,95601.72
2023-10-10T14:30:51.546Z,95600.75
2023-10-10T14:33:19.465Z,95601.59
2023-10-10T14:35:47.070Z,95602.56
2023-10-10T14:38:16.814Z,95599.78
2023-10-10T14:40:44.609Z,95592.22
2023-10-10T14:43:12.741Z,95602.56
2023-10-10T14:45:44.081Z,95603.56
2023-10-10T14:48:16.131Z,95614.06
2023-10-10T14:50:44.129Z,95603.56
2023-10-10T14:53:11.712Z,95604.53
2023-10-10T14:55:41.058Z,95605.34
2023-10-10T14:58:10.341Z,95600.94
2023-10-10T15:00:43.673Z,95607.97
2023-10-10T15:03:17.162Z,95603.69
2023-10-10T15:05:51.874Z,95606.19
2023-10-10T15:08:20.103Z,95609.78
2023-10-10T15:10:48.137Z,95615.88
2023-10-10T15:13:17.309Z,95610.59
2023-10-10T15:15:47.691Z,95603.56
2023-10-10T15:18:17.128Z,95607.81
2023-10-10T15:20:47.903Z,95610.44
2023-10-10T15:23:19.918Z,95606.97
2023-10-10T15:25:48.354Z,95616.69
2023-10-10T15:28:17.597Z,95613.06
2023-10-10T15:30:46.096Z,95609.59
2023-10-10T15:33:18.744Z,95614.06
2023-10-10T15:35:51.367Z,95617.50
2023-10-10T15:38:18.931Z,95614.06
2023-10-10T15:40:46.383Z,95610.59
2023-10-10T15:43:29.965Z,95609.94
2023-10-10T15:45:59.669Z,95617.53
2023-10-10T15:48:27.218Z,95621.28
2023-10-10T15:50:58.471Z,95618.84
2023-10-10T15:53:27.334Z,95626.72
2023-10-10T15:56:18.602Z,95618.19
2023-10-10T15:58:51.094Z,95623.44
2023-10-10T16:01:23.178Z,95623.75
2023-10-10T16:03:53.213Z,95631.63
2023-10-10T16:06:23.565Z,95633.44
2023-10-10T16:08:52.379Z,95632.59
2023-10-10T16:11:20.308Z,95627.53
2023-10-10T16:13:49.577Z,95631.16
2023-10-10T16:16:19.453Z,95628.53
2023-10-10T16:18:47.934Z,95626.03
2023-10-10T16:21:16.280Z,95627.81
2023-10-10T16:23:45.919Z,95632.28
2023-10-10T16:26:15.911Z,95634.09
2023-10-10T16:28:43.511Z,95642.13
2023-10-10T16:31:12.483Z,95627.34
2023-10-10T16:33:40.399Z,95634.41
2023-10-10T16:36:09.040Z,95633.59
2023-10-10T16:38:37.973Z,95638.84
2023-10-10T16:41:08.866Z,95638.03
2023-10-10T16:43:54.025Z,95640.66
2023-10-10T16:46:26.813Z,95637.19
2023-10-10T16:48:58.050Z,95643.28
2023-10-10T16:51:27.734Z,95649.19
2023-10-10T16:53:56.488Z,95643.28
2023-10-10T16:56:26.046Z,95647.53
2023-10-10T16:58:53.580Z,95640.66
2023-10-10T17:01:23.358Z,95640.66
2023-10-10T17:03:55.487Z,95644.91
2023-10-10T17:06:24.826Z,95660.69
2023-10-10T17:08:54.141Z,95648.53
2023-10-10T17:11:22.363Z,95659.06
2023-10-10T17:13:52.153Z,95655.59
2023-10-10T17:16:26.726Z,95653.13
2023-10-10T17:18:57.021Z,95661.03
2023-10-10T17:21:26.524Z,95659.19
2023-10-10T17:23:56.336Z,95652.31
2023-10-10T17:26:25.126Z,95657.56
2023-10-10T17:28:55.437Z,95658.38
2023-10-10T17:31:24.205Z,95655.75
2023-10-10T17:33:51.923Z,95650.50
2023-10-10T17:36:19.631Z,95663.78
2023-10-10T17:38:48.297Z,95666.41
2023-10-10T17:41:16.222Z,95665.63
2023-10-10T17:43:43.819Z,95666.41
2023-10-10T17:46:15.829Z,95662.16
2023-10-10T17:48:44.347Z,95675.13
2023-10-10T17:51:15.721Z,95668.06
2023-10-10T17:53:43.414Z,95675.78
2023-10-10T17:56:13.581Z,95669.69
2023-10-10T17:58:41.108Z,95674.94
2023-10-10T18:01:10.678Z,95673.97
2023-10-10T18:03:40.872Z,95673.00
2023-10-10T18:06:14.359Z,95679.91
2023-10-10T18:08:42.632Z,95677.28
2023-10-10T18:11:10.173Z,95672.84
2023-10-10T18:13:38.568Z,95676.31
2023-10-10T18:16:10.491Z,95677.94
2023-10-10T18:18:42.820Z,95671.72
2023-10-10T18:21:10.945Z,95677.94
2023-10-10T18:23:38.852Z,95676.97
2023-10-10T18:26:12.132Z,95677.75
2023-10-10T18:28:40.624Z,95683.03
2023-10-10T18:31:13.631Z,95682.22
2023-10-10T18:33:43.439Z,95681.22
2023-10-10T18:36:11.505Z,95676.78
2023-10-10T18:38:39.395Z,95674.16
2023-10-10T18:41:07.149Z,95678.59
2023-10-10T18:43:34.642Z,95678.59
2023-10-10T18:46:02.281Z,95673.34
2023-10-10T18:48:34.285Z,95679.41
2023-10-10T18:51:04.068Z,95678.44
2023-10-10T18:53:31.638Z,95684.50
2023-10-10T18:55:59.856Z,95685.34
2023-10-10T18:58:28.196Z,95679.25
2023-10-10T19:00:56.270Z,95685.34
2023-10-10T19:03:24.362Z,95681.88
2023-10-10T19:05:52.728Z,95690.59
2023-10-10T19:08:23.624Z,95683.53
2023-10-10T19:10:52.783Z,95679.25
2023-10-10T19:13:20.577Z,95681.09
2023-10-10T19:15:49.213Z,95678.44
2023-10-10T19:18:17.951Z,95678.28
2023-10-10T19:20:47.555Z,95687.97
2023-10-10T19:23:16.196Z,95685.34
2023-10-10T19:25:48.325Z,95682.06
2023-10-10T19:28:17.043Z,95682.72
2023-10-10T19:30:44.750Z,95682.06
2023-10-10T19:33:15.584Z,95679.41
2023-10-10T19:35:45.628Z,95681.22
2023-10-10T19:38:13.469Z,95678.75
2023-10-10T19:40:44.622Z,95685.66
2023-10-10T19:43:14.801Z,95683.19
2023-10-10T19:45:42.597Z,95682.22
2023-10-10T19:48:16.875Z,95683.03
2023-10-10T19:50:45.785Z,95683.19
2023-10-10T19:53:13.862Z,95682.22
